Time;durP1;ratioP1;P1;durP2;ratioP2;P2;SDS_P1;SDS_P2;PMS_P1;PMS_P2;Temp;Humidity;BMP_temperature;BMP_pressure;BME280_temperature;BME280_humidity;BME280_pressure;Samples;Min_cycle;Max_cycle;Signal;HPM_P1;HPM_P2
2024/03/29 00:01:26;;;;;;;50.78;47.88;;;;;;;;;;4991892;28;20038;-92
2024/03/29 00:03:55;;;;;;;40.92;38.70;;;;;;;;;;4984138;28;20109;-91
2024/03/29 00:06:21;;;;;;;42.88;40.55;;;;;;;;;;4979533;28;20057;-92
2024/03/29 00:08:48;;;;;;;31.10;29.42;;;;;;;;;;4979441;28;20022;-91
2024/03/29 00:11:14;;;;;;;32.95;31.20;;;;;;;;;;4979747;28;20046;-92
2024/03/29 00:13:40;;;;;;;42.95;40.55;;;;;;;;;;4979400;28;20019;-92
2024/03/29 00:16:07;;;;;;;23.00;21.75;;;;;;;;;;4979066;28;20049;-92
2024/03/29 00:18:33;;;;;;;39.85;37.75;;;;;;;;;;4978982;28;20052;-92
2024/03/29 00:20:59;;;;;;;49.55;46.95;;;;;;;;;;4979591;28;20122;-92
2024/03/29 00:23:25;;;;;;;46.72;44.22;;;;;;;;;;4979051;28;20471;-92
2024/03/29 00:25:51;;;;;;;47.63;45.10;;;;;;;;;;4978810;28;20089;-92
2024/03/29 00:28:18;;;;;;;39.03;36.95;;;;;;;;;;4978970;28;20534;-90
2024/03/29 00:30:44;;;;;;;47.33;44.78;;;;;;;;;;4979930;28;20037;-92
2024/03/29 00:33:11;;;;;;;50.65;47.95;;;;;;;;;;4979202;28;20026;-91
2024/03/29 00:35:37;;;;;;;54.78;51.90;;;;;;;;;;4979259;28;20034;-91
2024/03/29 00:38:03;;;;;;;38.42;36.15;;;;;;;;;;4979120;28;20157;-92
2024/03/29 00:40:29;;;;;;;50.58;47.80;;;;;;;;;;4979403;28;20514;-90
2024/03/29 00:42:55;;;;;;;34.53;32.58;;;;;;;;;;4979284;28;20474;-91
2024/03/29 00:45:21;;;;;;;36.38;34.42;;;;;;;;;;4978721;28;20042;-92
2024/03/29 00:47:48;;;;;;;52.50;49.70;;;;;;;;;;4978823;28;20057;-91
2024/03/29 00:50:14;;;;;;;42.28;39.97;;;;;;;;;;4978522;28;20125;-92
2024/03/29 00:52:40;;;;;;;39.60;37.53;;;;;;;;;;4978967;28;20105;-92
2024/03/29 00:55:06;;;;;;;36.22;34.30;;;;;;;;;;4978390;28;20081;-91
2024/03/29 00:57:32;;;;;;;34.33;32.50;;;;;;;;;;4978418;28;20372;-92
2024/03/29 00:59:59;;;;;;;41.42;39.15;;;;;;;;;;4978533;28;20026;-90
2024/03/29 01:02:25;;;;;;;31.67;29.92;;;;;;;;;;4977859;28;20053;-91
2024/03/29 01:04:54;;;;;;;47.50;45.03;;;;;;;;;;4978543;28;20034;-92
2024/03/29 01:07:20;;;;;;;44.30;41.92;;;;;;;;;;4978388;28;20062;-92
2024/03/29 01:09:46;;;;;;;25.60;24.15;;;;;;;;;;4978599;28;20036;-92
2024/03/29 01:12:13;;;;;;;38.97;36.72;;;;;;;;;;4978217;28;20060;-90
2024/03/29 01:14:39;;;;;;;39.70;37.60;;;;;;;;;;4978111;28;20054;-92
2024/03/29 01:17:06;;;;;;;54.15;51.30;;;;;;;;;;4977827;28;20089;-92
2024/03/29 01:19:32;;;;;;;63.63;60.22;;;;;;;;;;4978478;28;20030;-92
2024/03/29 01:21:58;;;;;;;58.63;55.58;;;;;;;;;;4978294;28;20022;-92
2024/03/29 01:24:25;;;;;;;58.28;55.22;;;;;;;;;;4978057;28;20023;-90
2024/03/29 01:26:51;;;;;;;48.40;45.83;;;;;;;;;;4979095;28;20092;-92
2024/03/29 01:29:18;;;;;;;53.17;50.40;;;;;;;;;;4998858;28;20046;-91
2024/03/29 01:31:44;;;;;;;42.92;40.63;;;;;;;;;;4979178;28;20038;-92
2024/03/29 01:34:10;;;;;;;47.85;45.35;;;;;;;;;;4978072;28;20026;-92
2024/03/29 01:36:37;;;;;;;37.08;35.10;;;;;;;;;;4996845;28;20038;-90
2024/03/29 01:39:03;;;;;;;39.20;36.90;;;;;;;;;;4978662;28;20034;-91
2024/03/29 01:41:29;;;;;;;45.72;43.22;;;;;;;;;;4978162;28;20038;-92
2024/03/29 01:43:55;;;;;;;36.45;34.42;;;;;;;;;;4980006;28;20062;-91
2024/03/29 01:46:23;;;;;;;37.47;35.42;;;;;;;;;;4978839;28;20058;-91
2024/03/29 01:48:53;;;;;;;42.25;40.05;;;;;;;;;;4978613;28;20034;-92
2024/03/29 01:51:24;;;;;;;38.58;36.50;;;;;;;;;;4977455;28;20026;-91
2024/03/29 01:53:51;;;;;;;38.47;36.25;;;;;;;;;;4977832;28;20486;-92
2024/03/29 01:56:17;;;;;;;42.60;40.30;;;;;;;;;;4977507;28;20022;-90
2024/03/29 01:58:45;;;;;;;44.88;42.45;;;;;;;;;;4977664;28;20045;-92
2024/03/29 02:01:12;;;;;;;30.00;28.20;;;;;;;;;;4977350;28;20037;-90
2024/03/29 02:03:41;;;;;;;36.58;34.38;;;;;;;;;;4977637;28;20034;-91
2024/03/29 02:06:12;;;;;;;41.63;39.33;;;;;;;;;;4977571;28;20046;-91
2024/03/29 02:08:39;;;;;;;48.95;46.33;;;;;;;;;;4977705;28;20538;-92
2024/03/29 02:11:05;;;;;;;52.53;49.55;;;;;;;;;;4977250;28;20030;-91
2024/03/29 02:13:32;;;;;;;40.38;38.13;;;;;;;;;;4977262;28;20026;-91
2024/03/29 02:15:58;;;;;;;44.60;41.80;;;;;;;;;;4977711;28;20031;-91
2024/03/29 02:18:24;;;;;;;45.90;42.92;;;;;;;;;;4976509;28;20058;-90
2024/03/29 02:20:50;;;;;;;23.98;22.17;;;;;;;;;;4976737;28;20391;-92
2024/03/29 02:23:22;;;;;;;29.10;27.45;;;;;;;;;;4976451;28;20041;-90
2024/03/29 02:25:48;;;;;;;45.22;42.65;;;;;;;;;;4977375;28;20053;-92
2024/03/29 02:28:17;;;;;;;28.05;26.40;;;;;;;;;;4976565;28;20169;-91
2024/03/29 02:30:43;;;;;;;24.00;22.58;;;;;;;;;;4976266;28;20026;-92
2024/03/29 02:33:12;;;;;;;47.88;45.17;;;;;;;;;;4977102;28;20509;-91
2024/03/29 02:35:38;;;;;;;40.58;38.13;;;;;;;;;;4976643;28;20141;-91
2024/03/29 02:38:04;;;;;;;39.17;36.85;;;;;;;;;;4977327;28;20030;-92
2024/03/29 02:40:31;;;;;;;20.83;19.48;;;;;;;;;;4976393;28;20045;-91
2024/03/29 02:42:57;;;;;;;19.95;18.75;;;;;;;;;;4976084;28;20026;-91
2024/03/29 02:45:28;;;;;;;18.77;17.52;;;;;;;;;;4976541;28;20371;-92
2024/03/29 02:47:57;;;;;;;22.20;20.90;;;;;;;;;;4976407;28;20038;-91
2024/03/29 02:50:23;;;;;;;27.77;26.13;;;;;;;;;;4976050;28;20097;-91
2024/03/29 02:52:52;;;;;;;27.35;25.45;;;;;;;;;;4976278;28;20081;-91
2024/03/29 02:55:22;;;;;;;25.55;23.80;;;;;;;;;;4976407;28;20023;-90
2024/03/29 02:57:51;;;;;;;27.45;25.73;;;;;;;;;;4976133;28;20022;-91
2024/03/29 03:00:20;;;;;;;24.30;22.70;;;;;;;;;;4976155;28;20037;-90
2024/03/29 03:02:48;;;;;;;28.52;26.58;;;;;;;;;;4999723;28;20102;-92
2024/03/29 03:05:18;;;;;;;26.42;24.83;;;;;;;;;;4988766;28;20136;-91
2024/03/29 03:13:14;;;;;;;32.13;30.23;;;;;;;;;;5011117;28;20056;-91
2024/03/29 03:15:40;;;;;;;29.40;27.50;;;;;;;;;;4979709;28;20085;-91
2024/03/29 03:18:12;;;;;;;29.50;27.58;;;;;;;;;;4933107;28;1361961;-91
2024/03/29 03:20:50;;;;;;;24.77;23.05;;;;;;;;;;4980299;28;20034;-92
2024/03/29 03:23:19;;;;;;;23.85;22.20;;;;;;;;;;4980196;28;20073;-90
2024/03/29 03:25:46;;;;;;;21.55;20.05;;;;;;;;;;4979683;28;20046;-90
2024/03/29 03:28:12;;;;;;;22.48;20.75;;;;;;;;;;4979975;28;20034;-91
2024/03/29 03:30:39;;;;;;;24.48;22.70;;;;;;;;;;4980431;28;20064;-91
2024/03/29 03:33:05;;;;;;;22.00;20.40;;;;;;;;;;4980188;28;20080;-91
2024/03/29 03:35:37;;;;;;;21.38;19.80;;;;;;;;;;4980109;28;20022;-91
2024/03/29 03:38:03;;;;;;;22.95;21.35;;;;;;;;;;4980486;28;20034;-91
2024/03/29 03:40:35;;;;;;;21.67;20.08;;;;;;;;;;4979655;28;20490;-91
2024/03/29 03:43:08;;;;;;;20.42;18.92;;;;;;;;;;4980013;28;20030;-91
2024/03/29 03:45:39;;;;;;;22.15;20.35;;;;;;;;;;4979581;28;20030;-90
2024/03/29 03:48:05;;;;;;;19.92;18.33;;;;;;;;;;4979581;28;20030;-91
2024/03/29 03:50:34;;;;;;;16.95;15.65;;;;;;;;;;4979970;28;20379;-90
2024/03/29 03:53:04;;;;;;;17.38;15.88;;;;;;;;;;4979896;28;20104;-91
2024/03/29 03:55:35;;;;;;;24.75;22.95;;;;;;;;;;4979553;28;20070;-90
2024/03/29 03:58:04;;;;;;;19.80;18.25;;;;;;;;;;4979491;28;20018;-91
2024/03/29 04:00:33;;;;;;;27.23;25.20;;;;;;;;;;4979775;28;20037;-90
2024/03/29 04:02:59;;;;;;;27.55;25.63;;;;;;;;;;4979608;28;20023;-91
2024/03/29 04:05:26;;;;;;;23.00;21.33;;;;;;;;;;4979932;28;20027;-90
2024/03/29 04:07:55;;;;;;;20.77;18.92;;;;;;;;;;4979361;28;20042;-91
2024/03/29 04:10:21;;;;;;;21.55;19.95;;;;;;;;;;4979398;28;20410;-90
2024/03/29 04:12:51;;;;;;;18.35;16.92;;;;;;;;;;4979240;28;20081;-91
2024/03/29 04:15:17;;;;;;;19.52;17.85;;;;;;;;;;4978733;28;20041;-90
2024/03/29 04:17:43;;;;;;;19.80;17.80;;;;;;;;;;4979141;28;20492;-91
2024/03/29 04:20:10;;;;;;;21.10;19.00;;;;;;;;;;4979350;28;20076;-91
2024/03/29 04:22:38;;;;;;;22.92;18.80;;;;;;;;;;4979468;28;20088;-90
2024/03/29 04:25:05;;;;;;;21.85;19.70;;;;;;;;;;4978986;28;20026;-93
2024/03/29 04:27:33;;;;;;;18.23;16.52;;;;;;;;;;4979391;28;20038;-90
2024/03/29 04:30:02;;;;;;;47.08;43.67;;;;;;;;;;4979001;28;20022;-91
2024/03/29 04:32:29;;;;;;;25.40;23.45;;;;;;;;;;4979220;28;20058;-90
2024/03/29 04:34:58;;;;;;;24.90;22.73;;;;;;;;;;4979166;28;20102;-90
2024/03/29 04:37:24;;;;;;;20.75;18.75;;;;;;;;;;4978741;28;20041;-91
2024/03/29 04:39:50;;;;;;;20.65;18.73;;;;;;;;;;4979021;28;20026;-91
2024/03/29 04:42:19;;;;;;;25.00;19.98;;;;;;;;;;4978609;28;20117;-92
2024/03/29 04:44:49;;;;;;;26.08;20.80;;;;;;;;;;4978894;28;20023;-91
2024/03/29 04:47:21;;;;;;;36.97;26.48;;;;;;;;;;4979203;28;20068;-91
2024/03/29 04:49:47;;;;;;;40.50;28.17;;;;;;;;;;4978941;28;20022;-91
2024/03/29 04:52:13;;;;;;;35.95;22.92;;;;;;;;;;4978529;28;20467;-91
2024/03/29 04:54:43;;;;;;;31.52;22.20;;;;;;;;;;4987148;28;20065;-91
2024/03/29 04:57:13;;;;;;;36.35;22.80;;;;;;;;;;4984117;28;20042;-91
2024/03/29 04:59:42;;;;;;;28.85;20.77;;;;;;;;;;4978587;28;20130;-91
2024/03/29 05:02:08;;;;;;;24.80;17.90;;;;;;;;;;4978754;28;20121;-91
2024/03/29 05:04:37;;;;;;;30.50;21.00;;;;;;;;;;4978482;28;20076;-91
2024/03/29 05:07:03;;;;;;;28.25;17.50;;;;;;;;;;4978282;28;20061;-91
2024/03/29 05:09:30;;;;;;;24.08;19.42;;;;;;;;;;4978429;28;20037;-90
2024/03/29 05:11:57;;;;;;;26.42;18.92;;;;;;;;;;4977732;28;20034;-91
2024/03/29 05:14:23;;;;;;;23.35;18.63;;;;;;;;;;4978487;28;20036;-90
2024/03/29 05:16:49;;;;;;;20.80;18.33;;;;;;;;;;4978210;28;20030;-91
2024/03/29 05:19:16;;;;;;;20.90;17.00;;;;;;;;;;4978988;28;20379;-92
2024/03/29 05:21:43;;;;;;;14.10;10.77;;;;;;;;;;4978161;28;20061;-90
2024/03/29 05:24:09;;;;;;;13.38;9.20;;;;;;;;;;4977895;28;20026;-91
2024/03/29 05:26:38;;;;;;;11.45;9.57;;;;;;;;;;4977083;28;20069;-90
2024/03/29 05:29:10;;;;;;;13.48;11.52;;;;;;;;;;4978024;28;20085;-92
2024/03/29 05:31:39;;;;;;;11.73;9.00;;;;;;;;;;4978030;28;20034;-90
2024/03/29 05:34:36;;;;;;;13.02;8.85;;;;;;;;;;4977986;28;20034;-91
2024/03/29 05:37:02;;;;;;;11.02;9.93;;;;;;;;;;4977976;28;20053;-92
2024/03/29 05:39:29;;;;;;;9.95;8.95;;;;;;;;;;4978243;28;20030;-91
2024/03/29 05:41:55;;;;;;;38.90;36.50;;;;;;;;;;4977901;28;20499;-92
2024/03/29 05:44:25;;;;;;;71.07;66.75;;;;;;;;;;4978207;28;20058;-92
2024/03/29 05:46:54;;;;;;;35.30;33.00;;;;;;;;;;4977451;28;20084;-93
2024/03/29 05:49:20;;;;;;;51.30;48.30;;;;;;;;;;4977405;28;20054;-93
2024/03/29 05:51:46;;;;;;;40.88;38.20;;;;;;;;;;4977192;28;20030;-93
2024/03/29 05:54:15;;;;;;;32.35;30.40;;;;;;;;;;4977885;28;20022;-93
2024/03/29 05:56:45;;;;;;;27.48;25.75;;;;;;;;;;4976681;28;20118;-91
2024/03/29 05:59:14;;;;;;;33.30;31.25;;;;;;;;;;4977609;28;20042;-92
2024/03/29 06:01:43;;;;;;;30.60;28.70;;;;;;;;;;4977199;28;20034;-93
2024/03/29 06:04:19;;;;;;;32.05;29.65;;;;;;;;;;4977246;28;20050;-92
2024/03/29 06:06:48;;;;;;;33.25;31.05;;;;;;;;;;4978260;28;20042;-94
2024/03/29 06:09:16;;;;;;;33.10;30.92;;;;;;;;;;5001648;28;20090;-92
2024/03/29 06:11:42;;;;;;;17.52;16.27;;;;;;;;;;4994123;28;20034;-93
2024/03/29 06:19:18;;;;;;;18.10;16.70;;;;;;;;;;4994877;28;20077;-93
2024/03/29 06:21:47;;;;;;;17.33;16.20;;;;;;;;;;4977357;28;20033;-93
2024/03/29 06:24:14;;;;;;;12.27;11.48;;;;;;;;;;4977180;28;20114;-93
2024/03/29 06:26:41;;;;;;;17.35;16.27;;;;;;;;;;4976504;28;20046;-93
2024/03/29 06:29:13;;;;;;;13.98;13.07;;;;;;;;;;4977130;28;20030;-93
2024/03/29 06:31:42;;;;;;;12.27;11.48;;;;;;;;;;4977094;28;20038;-93
2024/03/29 06:34:09;;;;;;;11.20;10.50;;;;;;;;;;4976936;28;20038;-93
2024/03/29 06:36:36;;;;;;;11.38;10.68;;;;;;;;;;4979685;28;20030;-93
2024/03/29 06:39:03;;;;;;;13.85;12.95;;;;;;;;;;4993860;28;20027;-90
2024/03/29 06:41:29;;;;;;;11.55;10.85;;;;;;;;;;4988747;28;20475;-92
2024/03/29 06:43:56;;;;;;;12.50;11.70;;;;;;;;;;4983661;28;20026;-91
2024/03/29 06:46:22;;;;;;;11.57;10.88;;;;;;;;;;4982369;28;20128;-92
2024/03/29 06:48:49;;;;;;;11.30;10.60;;;;;;;;;;4982388;28;20023;-92
2024/03/29 06:51:18;;;;;;;11.52;10.73;;;;;;;;;;4981382;28;20551;-91
2024/03/29 06:53:44;;;;;;;10.23;9.52;;;;;;;;;;4965830;28;20041;-93
2024/03/29 06:56:11;;;;;;;11.98;11.27;;;;;;;;;;4981217;28;20027;-91
2024/03/29 06:58:37;;;;;;;9.82;9.20;;;;;;;;;;4981052;28;20172;-95
2024/03/29 07:01:03;;;;;;;9.82;9.02;;;;;;;;;;4982077;28;20549;-93
2024/03/29 07:03:29;;;;;;;9.43;8.82;;;;;;;;;;4982360;28;20049;-91
2024/03/29 07:05:55;;;;;;;9.20;8.60;;;;;;;;;;4966943;28;20104;-92
2024/03/29 07:08:22;;;;;;;8.63;8.05;;;;;;;;;;4989673;28;20035;-92
2024/03/29 07:10:48;;;;;;;10.38;9.77;;;;;;;;;;4983474;28;20022;-92
2024/03/29 07:13:14;;;;;;;11.05;10.43;;;;;;;;;;4982474;28;20066;-93
2024/03/29 07:15:40;;;;;;;12.10;11.30;;;;;;;;;;4982205;28;20063;-91
2024/03/29 07:18:06;;;;;;;12.40;11.65;;;;;;;;;;4982637;28;20046;-93
2024/03/29 07:20:32;;;;;;;10.45;9.85;;;;;;;;;;4982228;28;20026;-93
2024/03/29 07:22:59;;;;;;;10.38;9.75;;;;;;;;;;4982140;28;20084;-92
2024/03/29 07:25:26;;;;;;;8.82;8.23;;;;;;;;;;4981984;28;20022;-92
2024/03/29 07:27:52;;;;;;;12.73;12.02;;;;;;;;;;4966541;28;20066;-90
2024/03/29 07:30:18;;;;;;;14.77;13.88;;;;;;;;;;4981958;28;20022;-93
2024/03/29 07:32:45;;;;;;;12.70;12.00;;;;;;;;;;4982016;28;20387;-94
2024/03/29 07:35:12;;;;;;;17.02;15.95;;;;;;;;;;4980937;28;20033;-91
2024/03/29 07:37:40;;;;;;;14.93;14.02;;;;;;;;;;4998832;28;20030;-92
2024/03/29 07:40:06;;;;;;;18.95;17.73;;;;;;;;;;4982536;28;20018;-90
2024/03/29 07:42:33;;;;;;;16.67;15.68;;;;;;;;;;5000434;28;20096;-92
2024/03/29 07:44:59;;;;;;;18.55;17.45;;;;;;;;;;4983543;28;20026;-92
2024/03/29 07:47:25;;;;;;;16.80;15.82;;;;;;;;;;4983475;28;20442;-92
2024/03/29 07:49:51;;;;;;;17.23;16.23;;;;;;;;;;4980236;28;20070;-93
2024/03/29 07:52:19;;;;;;;15.32;14.43;;;;;;;;;;4981784;28;20023;-92
2024/03/29 07:54:46;;;;;;;11.90;11.20;;;;;;;;;;5000772;28;20030;-92
2024/03/29 07:57:14;;;;;;;14.68;13.68;;;;;;;;;;4980199;28;20026;-94
2024/03/29 07:59:42;;;;;;;14.98;14.05;;;;;;;;;;4966825;28;20057;-93
2024/03/29 08:02:08;;;;;;;12.27;11.27;;;;;;;;;;4977313;28;20041;-93
2024/03/29 08:04:38;;;;;;;14.88;13.98;;;;;;;;;;4984325;28;20494;-91
2024/03/29 08:07:04;;;;;;;14.07;13.18;;;;;;;;;;4984538;28;20058;-91
2024/03/29 08:09:31;;;;;;;12.57;11.88;;;;;;;;;;4985879;28;20038;-91
2024/03/29 08:11:57;;;;;;;15.88;14.95;;;;;;;;;;4986053;28;20026;-92
2024/03/29 08:14:25;;;;;;;19.70;18.50;;;;;;;;;;4983054;28;20062;-92
2024/03/29 08:16:51;;;;;;;16.55;15.55;;;;;;;;;;4995196;28;20513;-91
2024/03/29 08:19:18;;;;;;;18.77;17.73;;;;;;;;;;4991695;28;20049;-92
2024/03/29 08:21:48;;;;;;;17.50;16.42;;;;;;;;;;4984238;28;20038;-92
2024/03/29 08:24:19;;;;;;;20.50;19.30;;;;;;;;;;5009831;28;20015;-92
2024/03/29 08:26:46;;;;;;;29.88;28.08;;;;;;;;;;4985889;28;20034;-92
2024/03/29 08:29:12;;;;;;;26.75;25.15;;;;;;;;;;4983803;28;20026;-92
2024/03/29 08:31:38;;;;;;;30.70;28.80;;;;;;;;;;4984920;28;20402;-92
2024/03/29 08:34:06;;;;;;;37.60;35.40;;;;;;;;;;4980827;28;20049;-93
2024/03/29 08:36:33;;;;;;;41.25;38.72;;;;;;;;;;4979423;28;20038;-91
2024/03/29 08:38:59;;;;;;;36.58;34.47;;;;;;;;;;4979769;28;20026;-91
2024/03/29 08:41:25;;;;;;;50.45;47.65;;;;;;;;;;4980289;28;20031;-94
2024/03/29 08:43:51;;;;;;;49.22;46.38;;;;;;;;;;4979353;28;20035;-90
2024/03/29 08:46:17;;;;;;;47.72;45.05;;;;;;;;;;4979165;28;20479;-93
2024/03/29 08:48:43;;;;;;;44.08;41.67;;;;;;;;;;4980011;28;20037;-93
2024/03/29 08:51:10;;;;;;;39.22;37.03;;;;;;;;;;4979461;28;20026;-92
2024/03/29 08:53:41;;;;;;;43.75;41.25;;;;;;;;;;4979376;28;20061;-93
2024/03/29 08:56:07;;;;;;;32.00;30.08;;;;;;;;;;4941442;29;20035;-94
2024/03/29 08:58:34;;;;;;;27.30;25.48;;;;;;;;;;4941265;29;20093;-93
2024/03/29 09:01:04;;;;;;;25.45;23.85;;;;;;;;;;4945283;28;20086;-92
2024/03/29 09:03:30;;;;;;;27.58;25.98;;;;;;;;;;4980691;28;20026;-93
2024/03/29 09:05:56;;;;;;;25.88;24.13;;;;;;;;;;4997423;28;20090;-91
2024/03/29 09:08:22;;;;;;;27.52;25.88;;;;;;;;;;4997883;28;20495;-91
2024/03/29 09:10:49;;;;;;;27.75;25.95;;;;;;;;;;4984858;28;20022;-92
2024/03/29 09:13:15;;;;;;;29.27;27.52;;;;;;;;;;4980070;28;20077;-90
2024/03/29 09:15:42;;;;;;;34.88;32.67;;;;;;;;;;4979091;28;20033;-92
2024/03/29 09:18:22;;;;;;;26.60;24.83;;;;;;;;;;4978572;28;20054;-92
2024/03/29 09:20:56;;;;;;;28.75;26.98;;;;;;;;;;4979776;28;20539;-90
2024/03/29 09:23:23;;;;;;;32.88;30.80;;;;;;;;;;4978684;28;20057;-92
2024/03/29 09:25:49;;;;;;;30.55;28.65;;;;;;;;;;4978065;28;20022;-90
2024/03/29 09:28:15;;;;;;;34.75;32.65;;;;;;;;;;4978425;28;20030;-92
2024/03/29 09:30:41;;;;;;;33.28;31.17;;;;;;;;;;4978249;28;20133;-93
2024/03/29 09:33:09;;;;;;;34.20;32.00;;;;;;;;;;4978260;28;20029;-92
2024/03/29 09:35:35;;;;;;;36.95;34.72;;;;;;;;;;4978968;28;20490;-92
2024/03/29 09:38:03;;;;;;;27.10;25.35;;;;;;;;;;4979004;28;20053;-93
2024/03/29 09:40:29;;;;;;;29.92;28.05;;;;;;;;;;4978311;28;20079;-92
2024/03/29 09:43:02;;;;;;;28.60;26.88;;;;;;;;;;4980004;28;20090;-93
2024/03/29 09:45:36;;;;;;;37.17;34.78;;;;;;;;;;4983100;28;20487;-93
2024/03/29 09:48:09;;;;;;;35.85;33.60;;;;;;;;;;4989201;28;20046;-93
2024/03/29 09:50:38;;;;;;;36.58;33.95;;;;;;;;;;4981107;28;20105;-91
2024/03/29 09:53:07;;;;;;;33.20;30.83;;;;;;;;;;4983483;28;20058;-93
2024/03/29 09:55:36;;;;;;;34.35;32.05;;;;;;;;;;4991196;28;20065;-90
2024/03/29 09:58:03;;;;;;;40.10;37.25;;;;;;;;;;4985339;28;20033;-93
2024/03/29 10:00:29;;;;;;;36.83;34.08;;;;;;;;;;4988162;28;20073;-92
2024/03/29 10:02:58;;;;;;;34.95;32.75;;;;;;;;;;4980152;28;20054;-93
2024/03/29 10:05:26;;;;;;;35.25;32.75;;;;;;;;;;4978573;28;20029;-91
2024/03/29 10:07:53;;;;;;;34.42;31.92;;;;;;;;;;4977288;28;20035;-92
2024/03/29 10:10:19;;;;;;;32.70;30.27;;;;;;;;;;4977634;28;20474;-93
2024/03/29 10:12:45;;;;;;;28.17;26.08;;;;;;;;;;4976885;28;20037;-92
2024/03/29 10:15:17;;;;;;;31.00;28.75;;;;;;;;;;4977290;28;20376;-93
2024/03/29 10:17:48;;;;;;;27.92;25.92;;;;;;;;;;4977261;28;20129;-92
2024/03/29 10:20:18;;;;;;;27.75;25.90;;;;;;;;;;4977328;28;20035;-91
2024/03/29 10:22:44;;;;;;;28.05;26.20;;;;;;;;;;4977486;28;20027;-93
2024/03/29 10:25:11;;;;;;;28.15;26.25;;;;;;;;;;4977316;28;20034;-93
2024/03/29 10:27:37;;;;;;;30.33;28.30;;;;;;;;;;4977202;28;20030;-91
2024/03/29 10:30:04;;;;;;;26.15;24.35;;;;;;;;;;4977352;28;20370;-93
2024/03/29 10:32:30;;;;;;;34.58;32.25;;;;;;;;;;4976998;28;20080;-92
2024/03/29 10:34:56;;;;;;;27.20;25.33;;;;;;;;;;4977337;28;20498;-92
2024/03/29 10:37:29;;;;;;;25.70;23.75;;;;;;;;;;4979610;28;20030;-93
2024/03/29 10:39:58;;;;;;;26.80;25.13;;;;;;;;;;5002202;28;20026;-93
2024/03/29 10:42:25;;;;;;;28.15;26.17;;;;;;;;;;4977289;28;20133;-92
2024/03/29 10:44:51;;;;;;;25.17;23.27;;;;;;;;;;4977342;28;20121;-93
2024/03/29 10:47:21;;;;;;;25.95;24.05;;;;;;;;;;4977288;28;20038;-94
2024/03/29 10:49:51;;;;;;;26.65;24.75;;;;;;;;;;4977661;28;20122;-92
2024/03/29 10:52:18;;;;;;;25.52;23.33;;;;;;;;;;4977964;28;20084;-93
2024/03/29 10:54:48;;;;;;;30.15;27.63;;;;;;;;;;4976846;28;20105;-92
2024/03/29 10:57:21;;;;;;;28.95;26.95;;;;;;;;;;4977426;28;20035;-93
2024/03/29 11:00:05;;;;;;;29.83;27.55;;;;;;;;;;4977328;28;20022;-93
2024/03/29 11:02:36;;;;;;;25.52;23.83;;;;;;;;;;4977030;28;20487;-93
2024/03/29 11:05:06;;;;;;;32.08;29.50;;;;;;;;;;4976835;28;20022;-93
2024/03/29 11:07:35;;;;;;;26.85;24.90;;;;;;;;;;4976967;28;20035;-92
2024/03/29 11:10:02;;;;;;;26.73;24.95;;;;;;;;;;4977107;28;20042;-94
2024/03/29 11:12:31;;;;;;;26.52;24.67;;;;;;;;;;4977179;28;20034;-92
2024/03/29 11:15:05;;;;;;;28.52;26.35;;;;;;;;;;4976869;28;20077;-95
2024/03/29 11:17:32;;;;;;;28.63;26.38;;;;;;;;;;4976931;28;20491;-93
2024/03/29 11:20:00;;;;;;;26.52;24.50;;;;;;;;;;4976690;28;20027;-94
2024/03/29 11:22:27;;;;;;;28.00;26.05;;;;;;;;;;4976887;28;20490;-92
2024/03/29 11:24:54;;;;;;;30.63;28.65;;;;;;;;;;4978713;28;20026;-94
2024/03/29 11:27:24;;;;;;;26.80;24.65;;;;;;;;;;4980159;28;20045;-93
2024/03/29 11:29:50;;;;;;;23.48;21.55;;;;;;;;;;4980276;28;20044;-93
2024/03/29 11:32:35;;;;;;;24.33;22.42;;;;;;;;;;4980589;28;20551;-92
2024/03/29 11:35:02;;;;;;;27.75;25.65;;;;;;;;;;4992606;28;20042;-92
2024/03/29 11:37:32;;;;;;;28.27;26.38;;;;;;;;;;4989760;28;20057;-94
2024/03/29 11:40:01;;;;;;;26.83;25.02;;;;;;;;;;4980461;28;20124;-92
2024/03/29 11:42:47;;;;;;;29.05;26.67;;;;;;;;;;4980049;28;20030;-93
2024/03/29 11:45:13;;;;;;;24.48;22.45;;;;;;;;;;4979966;28;20031;-92
2024/03/29 11:47:44;;;;;;;27.10;25.33;;;;;;;;;;4987458;28;20035;-94
2024/03/29 11:50:47;;;;;;;28.08;25.67;;;;;;;;;;5000793;28;20093;-93
2024/03/29 11:53:13;;;;;;;30.83;28.38;;;;;;;;;;4948040;28;20011;-93
2024/03/29 11:55:39;;;;;;;28.98;26.98;;;;;;;;;;5004080;28;20023;-94
2024/03/29 11:58:22;;;;;;;27.33;25.17;;;;;;;;;;4997671;28;20033;-94
2024/03/29 12:00:48;;;;;;;;;;;;;;;;;;4987975;28;20037;-93
2024/03/29 12:03:18;;;;;;;24.83;23.00;;;;;;;;;;4982300;28;19971;-94
2024/03/29 12:05:45;;;;;;;26.63;24.65;;;;;;;;;;4987495;28;20028;-92
2024/03/29 12:08:16;;;;;;;25.17;23.23;;;;;;;;;;4991839;28;20042;-94
2024/03/29 12:10:45;;;;;;;31.27;28.52;;;;;;;;;;5011641;28;20043;-93
2024/03/29 12:13:16;;;;;;;25.27;22.98;;;;;;;;;;5012702;28;20035;-92
2024/03/29 12:15:42;;;;;;;24.77;22.67;;;;;;;;;;4992708;28;20026;-94
2024/03/29 12:18:36;;;;;;;28.83;26.65;;;;;;;;;;4999882;28;20048;-93
2024/03/29 12:21:15;;;;;;;27.17;25.17;;;;;;;;;;5007330;28;20031;-91
2024/03/29 12:23:47;;;;;;;27.80;25.55;;;;;;;;;;4988325;28;20038;-93
2024/03/29 12:26:30;;;;;;;25.55;23.67;;;;;;;;;;4993501;28;20510;-92
2024/03/29 12:28:57;;;;;;;24.33;22.38;;;;;;;;;;5003714;28;20509;-91
2024/03/29 12:31:23;;;;;;;27.45;25.33;;;;;;;;;;4988639;28;20006;-93
2024/03/29 12:33:53;;;;;;;23.52;21.73;;;;;;;;;;4973106;28;20034;-94
2024/03/29 12:36:43;;;;;;;27.77;25.58;;;;;;;;;;5013864;28;20038;-94
2024/03/29 12:39:13;;;;;;;21.40;19.63;;;;;;;;;;5003790;28;20041;-94
2024/03/29 12:41:40;;;;;;;29.60;27.35;;;;;;;;;;4981999;28;20030;-92
2024/03/29 12:44:06;;;;;;;21.60;20.08;;;;;;;;;;4981070;28;20506;-91
2024/03/29 12:46:33;;;;;;;22.67;20.95;;;;;;;;;;4980644;28;20031;-93
2024/03/29 12:49:00;;;;;;;24.55;22.35;;;;;;;;;;4981887;28;20044;-94
2024/03/29 12:51:29;;;;;;;20.98;19.38;;;;;;;;;;4981955;28;20023;-94
2024/03/29 12:54:00;;;;;;;25.67;23.48;;;;;;;;;;4965995;28;20034;-92
2024/03/29 12:56:26;;;;;;;27.35;25.17;;;;;;;;;;4980909;28;20026;-93
2024/03/29 12:58:53;;;;;;;24.63;22.55;;;;;;;;;;4982043;28;20030;-92
2024/03/29 13:01:19;;;;;;;28.08;26.08;;;;;;;;;;4982162;28;20116;-93
2024/03/29 13:03:46;;;;;;;23.35;21.42;;;;;;;;;;4980570;28;20076;-94
2024/03/29 13:06:15;;;;;;;23.33;21.52;;;;;;;;;;4980982;28;20030;-94
2024/03/29 13:08:45;;;;;;;22.88;21.10;;;;;;;;;;5003983;28;20022;-92
2024/03/29 13:11:11;;;;;;;21.08;19.48;;;;;;;;;;4993217;28;20011;-93
2024/03/29 13:13:38;;;;;;;32.13;29.70;;;;;;;;;;4989291;28;20034;-92
2024/03/29 13:16:04;;;;;;;23.05;21.17;;;;;;;;;;4983367;28;20054;-92
2024/03/29 13:18:31;;;;;;;20.75;19.23;;;;;;;;;;4984893;28;20085;-94
2024/03/29 13:20:59;;;;;;;27.88;25.63;;;;;;;;;;4985886;28;20037;-93
2024/03/29 13:23:25;;;;;;;27.52;25.17;;;;;;;;;;4967514;28;20046;-93
2024/03/29 13:25:53;;;;;;;26.40;24.20;;;;;;;;;;4982721;28;20058;-93
2024/03/29 13:28:22;;;;;;;23.77;21.88;;;;;;;;;;4983097;28;20022;-94
2024/03/29 13:30:51;;;;;;;22.63;20.38;;;;;;;;;;4982860;28;20047;-94
2024/03/29 13:33:21;;;;;;;18.95;17.20;;;;;;;;;;5004714;28;20051;-93
2024/03/29 13:35:48;;;;;;;21.60;19.90;;;;;;;;;;4985797;28;20057;-93
2024/03/29 13:38:14;;;;;;;26.52;24.40;;;;;;;;;;4965972;28;20077;-93
2024/03/29 13:40:40;;;;;;;23.40;21.30;;;;;;;;;;4984467;28;20113;-92
2024/03/29 13:43:08;;;;;;;25.63;23.52;;;;;;;;;;4968637;28;20048;-94
2024/03/29 13:45:34;;;;;;;24.08;22.05;;;;;;;;;;4980621;28;20333;-93
2024/03/29 13:48:01;;;;;;;21.92;20.13;;;;;;;;;;4980815;28;20046;-92
2024/03/29 13:50:27;;;;;;;28.23;26.08;;;;;;;;;;4982702;28;20077;-93
2024/03/29 13:52:54;;;;;;;25.33;23.33;;;;;;;;;;4983094;28;20038;-93
2024/03/29 13:55:25;;;;;;;24.40;22.48;;;;;;;;;;4983343;28;20027;-90
2024/03/29 13:57:54;;;;;;;27.40;25.35;;;;;;;;;;4981193;28;20038;-94
2024/03/29 14:00:22;;;;;;;22.83;20.80;;;;;;;;;;4983051;28;20022;-94
2024/03/29 14:02:48;;;;;;;26.13;23.77;;;;;;;;;;4969312;28;20054;-94
2024/03/29 14:05:14;;;;;;;21.00;19.10;;;;;;;;;;4966262;28;20042;-92
2024/03/29 14:07:45;;;;;;;20.95;19.05;;;;;;;;;;4999842;28;20617;-94
2024/03/29 14:10:13;;;;;;;26.30;24.00;;;;;;;;;;4968338;28;20030;-92
2024/03/29 14:12:39;;;;;;;23.52;21.27;;;;;;;;;;4981913;28;20121;-95
2024/03/29 14:15:15;;;;;;;25.55;23.17;;;;;;;;;;4984380;28;20030;-93
2024/03/29 14:17:45;;;;;;;22.38;20.38;;;;;;;;;;4997835;28;20042;-94
2024/03/29 14:20:22;;;;;;;22.55;20.80;;;;;;;;;;4983406;28;20030;-94
2024/03/29 14:22:54;;;;;;;28.38;26.13;;;;;;;;;;4966127;28;20034;-93
2024/03/29 14:25:21;;;;;;;25.50;23.63;;;;;;;;;;4980454;28;20034;-93
2024/03/29 14:27:54;;;;;;;25.92;23.95;;;;;;;;;;4980470;28;20096;-92
2024/03/29 14:30:21;;;;;;;20.40;18.40;;;;;;;;;;4983595;28;20026;-89
2024/03/29 14:32:48;;;;;;;27.80;25.13;;;;;;;;;;4985931;28;20034;-92
2024/03/29 14:35:16;;;;;;;23.10;20.77;;;;;;;;;;4983774;28;20037;-94